Time;durP1;ratioP1;P1;durP2;ratioP2;P2;SDS_P1;SDS_P2;PMS_P1;PMS_P2;Temp;Humidity;BMP_temperature;BMP_pressure;BME280_temperature;BME280_humidity;BME280_pressure;Samples;Min_cycle;Max_cycle;Signal;HPM_P1;HPM_P2
2023/06/23 00:02:06;;;;;;;3.20;1.65;;;19.50;99.90;;;;;;5025894;28;20103;-32
2023/06/23 00:04:32;;;;;;;4.03;1.90;;;19.50;99.90;;;;;;5021943;28;20026;-31
2023/06/23 00:07:00;;;;;;;1.85;1.67;;;19.40;99.90;;;;;;5023904;28;20048;-30
2023/06/23 00:09:26;;;;;;;3.15;1.70;;;19.40;99.90;;;;;;5022401;28;20029;-31
2023/06/23 00:11:51;;;;;;;1.90;1.25;;;19.40;99.90;;;;;;5021044;28;20118;-34
2023/06/23 00:14:18;;;;;;;2.35;1.63;;;19.40;99.90;;;;;;5021649;28;20084;-39
2023/06/23 00:16:43;;;;;;;3.63;1.60;;;19.30;99.90;;;;;;5020097;28;20029;-31
2023/06/23 00:19:09;;;;;;;4.32;1.70;;;19.40;99.90;;;;;;5023377;28;20486;-31
2023/06/23 00:21:35;;;;;;;2.15;1.88;;;19.20;99.90;;;;;;5025709;28;20022;-31
2023/06/23 00:24:01;;;;;;;3.08;1.73;;;19.20;99.90;;;;;;5018970;28;20041;-40
2023/06/23 00:26:27;;;;;;;1.90;1.67;;;19.20;99.90;;;;;;5019822;28;20395;-40
2023/06/23 00:28:53;;;;;;;3.97;1.70;;;19.20;99.90;;;;;;5021226;28;20041;-39
2023/06/23 00:31:18;;;;;;;1.65;1.50;;;19.20;99.90;;;;;;5021929;28;20030;-40
2023/06/23 00:33:44;;;;;;;4.93;1.70;;;19.10;99.90;;;;;;5021792;28;20120;-41
2023/06/23 00:36:09;;;;;;;3.50;1.73;;;19.10;99.90;;;;;;5021813;28;20022;-41
2023/06/23 00:38:35;;;;;;;4.78;1.65;;;19.10;99.90;;;;;;5024210;28;20036;-41
2023/06/23 00:41:03;;;;;;;2.55;1.70;;;19.10;99.90;;;;;;5020421;28;20036;-39
2023/06/23 00:43:32;;;;;;;3.38;1.65;;;19.10;99.90;;;;;;5023404;28;20045;-40
2023/06/23 00:46:09;;;;;;;3.20;1.50;;;19.10;99.90;;;;;;5023345;28;20087;-41
2023/06/23 00:48:35;;;;;;;2.90;1.70;;;19.10;99.90;;;;;;5019290;28;20024;-38
2023/06/23 00:51:00;;;;;;;4.80;1.95;;;19.10;99.90;;;;;;4998620;28;20386;-39
2023/06/23 00:53:26;;;;;;;2.55;1.70;;;19.10;99.90;;;;;;5021420;28;20030;-41
2023/06/23 00:55:53;;;;;;;3.00;1.70;;;19.10;99.90;;;;;;5017977;28;20033;-40
2023/06/23 00:58:19;;;;;;;3.97;1.63;;;19.10;99.90;;;;;;5024665;28;20037;-38
2023/06/23 01:00:45;;;;;;;4.10;2.13;;;19.10;99.90;;;;;;5019157;28;20030;-40
2023/06/23 01:03:11;;;;;;;2.78;1.90;;;19.10;99.90;;;;;;5023631;28;20080;-41
2023/06/23 01:05:39;;;;;;;3.00;1.88;;;19.10;99.90;;;;;;5019830;28;20069;-40
2023/06/23 01:08:26;;;;;;;2.80;1.73;;;19.00;99.90;;;;;;5023037;28;20038;-37
2023/06/23 01:10:59;;;;;;;4.28;1.77;;;19.00;99.90;;;;;;5021918;28;20065;-40
2023/06/23 01:13:32;;;;;;;2.42;1.75;;;18.90;99.90;;;;;;5021060;28;20061;-40
2023/06/23 01:16:07;;;;;;;2.03;1.70;;;18.80;99.90;;;;;;5025159;28;20030;-39
2023/06/23 01:18:55;;;;;;;3.80;1.88;;;18.80;99.90;;;;;;5022446;28;20116;-41
2023/06/23 01:21:48;;;;;;;3.55;1.67;;;18.80;99.90;;;;;;5027459;28;20557;-41
2023/06/23 01:24:47;;;;;;;3.28;1.50;;;18.70;99.90;;;;;;5019072;28;20040;-41
2023/06/23 01:27:31;;;;;;;2.72;1.55;;;18.80;99.90;;;;;;5018513;28;20038;-40
2023/06/23 01:30:01;;;;;;;2.13;1.75;;;18.70;99.90;;;;;;5021968;28;20049;-40
2023/06/23 01:32:34;;;;;;;2.72;1.63;;;18.80;99.90;;;;;;5028254;28;20486;-41
2023/06/23 01:35:06;;;;;;;1.70;1.60;;;18.80;99.90;;;;;;5020107;28;20033;-39
2023/06/23 01:37:36;;;;;;;2.58;1.90;;;18.80;99.90;;;;;;5017263;28;20033;-40
2023/06/23 01:40:13;;;;;;;3.47;1.50;;;18.80;99.90;;;;;;5016906;28;20038;-39
2023/06/23 01:42:51;;;;;;;3.75;1.63;;;18.70;99.90;;;;;;5017041;28;20076;-39
2023/06/23 01:45:17;;;;;;;2.65;1.38;;;18.70;99.90;;;;;;5021226;28;20053;-39
2023/06/23 01:47:48;;;;;;;3.17;1.80;;;18.70;99.90;;;;;;5026641;28;20029;-39
2023/06/23 01:50:16;;;;;;;2.45;1.73;;;18.70;99.90;;;;;;5021518;28;20056;-40
2023/06/23 01:52:44;;;;;;;4.35;1.67;;;18.60;99.90;;;;;;5023086;28;20049;-39
2023/06/23 01:55:10;;;;;;;;;;;18.60;99.90;;;;;;5023877;28;20033;-38
2023/06/23 01:57:38;;;;;;;2.30;1.60;;;18.60;99.90;;;;;;5025047;28;20377;-40
2023/06/23 02:00:13;;;;;;;2.67;1.55;;;18.50;99.90;;;;;;5020103;28;20061;-38
2023/06/23 02:02:41;;;;;;;2.20;1.65;;;18.50;99.90;;;;;;5022432;28;20026;-41
2023/06/23 02:05:08;;;;;;;2.95;1.50;;;18.50;99.90;;;;;;5024292;28;20037;-41
2023/06/23 02:07:35;;;;;;;2.17;1.30;;;18.40;99.90;;;;;;5024448;28;20048;-39
2023/06/23 02:10:03;;;;;;;3.15;2.05;;;18.40;99.90;;;;;;5020853;28;20045;-40
2023/06/23 02:12:30;;;;;;;2.43;1.30;;;18.30;99.90;;;;;;5022810;28;20033;-42
2023/06/23 02:14:56;;;;;;;5.70;1.80;;;18.30;99.90;;;;;;5023345;28;20040;-36
2023/06/23 02:17:23;;;;;;;8.25;1.83;;;18.30;99.90;;;;;;5024771;28;20540;-42
2023/06/23 02:19:51;;;;;;;4.80;1.50;;;18.30;99.90;;;;;;5021503;28;20042;-42
2023/06/23 02:22:22;;;;;;;1.67;1.48;;;18.20;99.90;;;;;;5022278;28;20041;-42
2023/06/23 02:24:49;;;;;;;1.40;1.30;;;18.20;99.90;;;;;;5005511;28;20038;-38
2023/06/23 02:27:15;;;;;;;1.60;1.50;;;18.20;99.90;;;;;;5019980;28;20026;-42
2023/06/23 02:29:42;;;;;;;2.22;1.50;;;18.20;99.90;;;;;;5023383;28;20048;-40
2023/06/23 02:32:08;;;;;;;3.45;1.70;;;18.30;99.90;;;;;;5020337;28;20041;-41
2023/06/23 02:34:37;;;;;;;3.85;2.05;;;18.30;99.90;;;;;;5023501;28;20036;-42
2023/06/23 02:37:05;;;;;;;2.47;1.60;;;18.30;99.90;;;;;;5020344;28;20029;-39
2023/06/23 02:39:37;;;;;;;3.67;1.60;;;18.30;99.90;;;;;;5023092;28;20960;-42
2023/06/23 02:42:04;;;;;;;4.13;1.67;;;18.30;99.90;;;;;;5025187;28;20051;-41
2023/06/23 02:44:34;;;;;;;2.88;1.52;;;18.30;99.90;;;;;;5024237;28;20034;-42
2023/06/23 02:47:03;;;;;;;2.78;1.80;;;18.30;99.90;;;;;;5023549;28;20034;-36
2023/06/23 02:49:30;;;;;;;2.85;1.77;;;18.30;99.90;;;;;;5021054;28;20037;-42
2023/06/23 02:51:59;;;;;;;2.22;1.55;;;18.30;99.90;;;;;;5024917;28;20048;-42
2023/06/23 02:54:31;;;;;;;4.18;2.08;;;18.30;99.90;;;;;;5019401;28;20029;-39
2023/06/23 02:56:58;;;;;;;1.70;1.55;;;18.30;99.90;;;;;;5023858;28;20676;-40
2023/06/23 02:59:27;;;;;;;2.55;1.63;;;18.30;99.90;;;;;;5023183;28;20052;-42
2023/06/23 03:01:54;;;;;;;2.50;1.75;;;18.30;99.90;;;;;;5022926;28;20041;-41
2023/06/23 03:04:22;;;;;;;3.00;1.57;;;18.30;99.90;;;;;;5022472;28;20034;-39
2023/06/23 03:06:47;;;;;;;2.85;1.55;;;18.30;99.90;;;;;;5022553;28;20400;-42
2023/06/23 03:09:13;;;;;;;2.08;1.48;;;18.30;99.90;;;;;;5020297;28;20041;-42
2023/06/23 03:11:39;;;;;;;2.78;1.67;;;18.30;99.90;;;;;;5024523;28;20502;-41
2023/06/23 03:14:05;;;;;;;2.80;1.50;;;18.30;99.90;;;;;;5024834;28;20523;-39
2023/06/23 03:16:48;;;;;;;2.85;1.70;;;18.30;99.90;;;;;;5023166;28;20033;-40
2023/06/23 03:20:02;;;;;;;2.60;1.70;;;18.30;99.90;;;;;;5019718;28;20029;-41
2023/06/23 03:22:57;;;;;;;3.15;1.45;;;18.30;99.90;;;;;;5023572;28;20037;-38
2023/06/23 03:25:28;;;;;;;1.65;1.55;;;18.20;99.90;;;;;;5023530;28;20038;-40
2023/06/23 03:28:00;;;;;;;2.22;1.50;;;18.30;99.90;;;;;;5022985;28;20037;-40
2023/06/23 03:30:30;;;;;;;2.50;1.60;;;18.20;99.90;;;;;;5021504;28;20558;-41
2023/06/23 03:33:02;;;;;;;5.38;1.90;;;18.20;99.90;;;;;;5021922;28;20034;-41
2023/06/23 03:35:37;;;;;;;3.35;1.73;;;18.20;99.90;;;;;;5017365;28;20706;-41
2023/06/23 03:38:07;;;;;;;1.95;1.50;;;18.20;99.90;;;;;;5023429;28;20498;-40
2023/06/23 03:40:41;;;;;;;2.80;1.60;;;18.20;99.90;;;;;;5020440;28;20017;-40
2023/06/23 03:43:34;;;;;;;1.98;1.63;;;18.20;99.90;;;;;;5025458;28;20041;-39
2023/06/23 03:46:06;;;;;;;2.95;1.85;;;18.10;99.90;;;;;;5024659;28;20029;-41
2023/06/23 03:48:36;;;;;;;2.05;1.48;;;18.10;99.90;;;;;;5020435;28;20034;-40
2023/06/23 03:51:03;;;;;;;2.45;1.50;;;18.10;99.90;;;;;;5023210;28;20056;-40
2023/06/23 03:53:32;;;;;;;2.20;1.77;;;18.10;99.90;;;;;;5024063;28;20033;-41
2023/06/23 03:56:00;;;;;;;1.65;1.33;;;18.00;99.90;;;;;;5020806;28;20033;-40
2023/06/23 03:58:27;;;;;;;1.40;1.30;;;17.90;99.90;;;;;;5021945;28;20037;-41
2023/06/23 04:00:55;;;;;;;2.63;1.33;;;18.00;99.90;;;;;;5019763;28;20045;-41
2023/06/23 04:03:23;;;;;;;3.80;1.48;;;18.00;99.90;;;;;;5021830;28;20037;-40
2023/06/23 04:05:49;;;;;;;3.53;1.60;;;17.90;99.90;;;;;;5022919;28;20037;-40
2023/06/23 04:08:18;;;;;;;1.60;1.00;;;17.90;99.90;;;;;;5020760;28;20033;-40
2023/06/23 04:10:46;;;;;;;2.17;1.20;;;17.90;99.90;;;;;;5024468;28;20104;-40
2023/06/23 04:13:13;;;;;;;1.13;1.02;;;17.90;99.90;;;;;;5005283;28;20589;-40
2023/06/23 04:15:40;;;;;;;5.18;1.10;;;17.90;99.90;;;;;;5022034;28;20549;-40
2023/06/23 04:18:08;;;;;;;0.70;0.70;;;17.90;99.90;;;;;;5021431;28;20803;-39
2023/06/23 04:20:35;;;;;;;1.70;1.08;;;17.90;99.90;;;;;;5023549;28;20030;-41
2023/06/23 04:23:04;;;;;;;0.77;0.77;;;17.80;99.90;;;;;;5024785;28;20084;-40
2023/06/23 04:25:30;;;;;;;1.23;0.65;;;17.80;99.90;;;;;;5020518;28;20514;-32
2023/06/23 04:28:02;;;;;;;1.38;0.90;;;17.80;99.90;;;;;;5022160;28;20064;-32
2023/06/23 04:30:31;;;;;;;1.10;0.82;;;17.80;99.90;;;;;;5020928;28;20034;-33
2023/06/23 04:32:56;;;;;;;0.80;0.80;;;17.70;99.90;;;;;;5019559;28;20041;-34
2023/06/23 04:35:22;;;;;;;1.50;0.65;;;17.70;99.90;;;;;;5021555;28;20025;-33
2023/06/23 04:37:55;;;;;;;1.23;1.13;;;17.60;99.90;;;;;;5022708;28;20113;-34
2023/06/23 04:40:30;;;;;;;0.95;0.95;;;17.40;99.90;;;;;;5019216;28;20025;-35
2023/06/23 04:43:13;;;;;;;3.53;1.17;;;17.40;99.90;;;;;;5019741;28;20084;-33
2023/06/23 04:45:47;;;;;;;1.88;1.45;;;17.20;99.90;;;;;;5018633;28;20053;-38
2023/06/23 04:48:16;;;;;;;2.30;1.50;;;17.20;99.90;;;;;;5003436;28;20601;-33
2023/06/23 04:50:44;;;;;;;1.35;1.25;;;17.20;99.90;;;;;;5022464;28;20030;-35
2023/06/23 04:53:20;;;;;;;;;;;17.10;99.90;;;;;;5022167;28;20033;-36
2023/06/23 04:55:51;;;;;;;1.50;1.40;;;17.10;99.90;;;;;;5021993;28;19914;-34
2023/06/23 04:58:18;;;;;;;2.17;1.50;;;17.10;99.90;;;;;;5019471;28;20037;-33
2023/06/23 05:00:45;;;;;;;2.60;1.40;;;17.10;99.90;;;;;;5019293;28;20036;-34
2023/06/23 05:03:12;;;;;;;2.72;1.73;;;17.20;99.90;;;;;;5022696;28;20040;-34
2023/06/23 05:05:41;;;;;;;1.88;1.70;;;17.20;99.90;;;;;;5020221;28;20037;-33
2023/06/23 05:08:08;;;;;;;3.17;1.90;;;17.10;99.90;;;;;;5019298;28;20099;-37
2023/06/23 05:10:36;;;;;;;3.05;1.50;;;17.00;99.90;;;;;;5017779;28;20045;-36
2023/06/23 05:13:03;;;;;;;2.93;2.23;;;16.90;99.90;;;;;;5018459;28;20553;-33
2023/06/23 05:15:29;;;;;;;3.05;2.05;;;17.00;99.90;;;;;;5011764;28;20295;-33
2023/06/23 05:17:58;;;;;;;2.25;1.98;;;16.90;99.90;;;;;;5023991;28;20026;-34
2023/06/23 05:20:25;;;;;;;3.58;2.40;;;16.90;99.90;;;;;;5020259;28;20037;-33
2023/06/23 05:22:55;;;;;;;3.13;2.60;;;16.90;99.90;;;;;;5023198;28;20033;-33
2023/06/23 05:25:23;;;;;;;2.55;2.20;;;16.90;99.90;;;;;;5021144;28;20497;-33
2023/06/23 05:27:57;;;;;;;3.38;2.15;;;16.90;99.90;;;;;;5017982;28;20024;-33
2023/06/23 05:30:24;;;;;;;3.30;2.75;;;16.90;99.90;;;;;;5019806;28;20525;-35
2023/06/23 05:32:52;;;;;;;5.30;3.42;;;17.00;99.90;;;;;;5019269;28;20060;-34
2023/06/23 05:35:19;;;;;;;3.13;2.70;;;16.90;99.90;;;;;;5021633;28;20018;-34
2023/06/23 05:37:46;;;;;;;4.50;3.40;;;17.00;99.90;;;;;;5021166;28;20022;-32
2023/06/23 05:40:15;;;;;;;3.33;3.03;;;17.00;99.90;;;;;;5006084;28;20029;-32
2023/06/23 05:42:42;;;;;;;4.72;3.13;;;17.00;99.90;;;;;;5025362;28;20049;-34
2023/06/23 05:45:10;;;;;;;4.68;3.13;;;17.10;99.90;;;;;;5022756;28;20033;-34
2023/06/23 05:47:45;;;;;;;4.57;3.15;;;17.10;99.90;;;;;;5021405;28;20038;-31
2023/06/23 05:50:23;;;;;;;5.32;3.25;;;17.20;99.90;;;;;;5020149;28;20029;-31
2023/06/23 05:53:07;;;;;;;6.03;3.80;;;17.20;99.90;;;;;;5021350;28;20030;-31
2023/06/23 05:55:37;;;;;;;8.75;3.90;;;17.20;99.90;;;;;;5021766;28;20029;-37
2023/06/23 05:58:07;;;;;;;4.95;3.67;;;17.20;99.90;;;;;;5022536;28;20038;-33
2023/06/23 06:00:38;;;;;;;5.50;3.58;;;17.20;99.90;;;;;;5020893;28;20235;-33
2023/06/23 06:03:07;;;;;;;5.63;4.35;;;17.20;99.90;;;;;;5022380;28;20076;-33
2023/06/23 06:05:34;;;;;;;4.68;3.65;;;17.20;99.90;;;;;;5030012;28;20467;-32
2023/06/23 06:08:01;;;;;;;6.93;5.05;;;17.30;99.90;;;;;;5029261;28;20515;-31
2023/06/23 06:10:28;;;;;;;5.63;4.13;;;17.30;99.90;;;;;;5022153;28;20418;-31
2023/06/23 06:12:55;;;;;;;6.20;4.43;;;17.30;99.90;;;;;;5026863;28;20037;-32
2023/06/23 06:15:22;;;;;;;5.60;4.00;;;17.20;99.90;;;;;;5025986;28;20030;-32
2023/06/23 06:17:49;;;;;;;5.82;4.30;;;17.30;99.90;;;;;;5023875;28;20033;-31
2023/06/23 06:20:17;;;;;;;6.50;4.63;;;17.30;99.90;;;;;;5023604;28;20426;-32
2023/06/23 06:22:44;;;;;;;;;;;17.30;99.90;;;;;;5027250;28;20052;-32
2023/06/23 06:25:11;;;;;;;5.43;4.40;;;17.40;99.90;;;;;;5029271;28;20317;-31
2023/06/23 06:27:37;;;;;;;6.17;4.60;;;17.50;99.90;;;;;;5027108;28;20394;-31
2023/06/23 06:30:05;;;;;;;8.00;4.95;;;17.50;99.90;;;;;;5028066;28;20284;-31
2023/06/23 06:32:34;;;;;;;5.57;4.45;;;17.60;99.90;;;;;;5024918;28;20108;-35
2023/06/23 06:35:05;;;;;;;8.45;4.50;;;17.60;99.90;;;;;;5025054;28;20029;-30
2023/06/23 06:37:37;;;;;;;7.05;5.25;;;17.60;99.90;;;;;;5027323;28;20112;-32
2023/06/23 06:40:06;;;;;;;7.55;4.57;;;17.60;99.90;;;;;;5021779;28;20095;-31
2023/06/23 06:42:32;;;;;;;6.80;5.15;;;17.60;99.90;;;;;;5023980;28;20144;-32
2023/06/23 06:44:58;;;;;;;5.10;4.35;;;17.70;99.90;;;;;;5019533;28;20112;-41
2023/06/23 06:47:25;;;;;;;6.75;4.60;;;17.70;99.90;;;;;;5023040;28;20501;-41
2023/06/23 06:49:52;;;;;;;6.35;4.72;;;17.80;99.90;;;;;;5022783;28;20068;-40
2023/06/23 06:52:18;;;;;;;8.05;5.22;;;17.90;99.90;;;;;;5023254;28;20096;-41
2023/06/23 06:54:45;;;;;;;8.30;5.70;;;18.00;99.90;;;;;;5025986;28;20030;-41
2023/06/23 06:57:11;;;;;;;7.97;5.15;;;17.90;99.90;;;;;;5022783;28;20391;-41
2023/06/23 06:59:37;;;;;;;7.50;5.78;;;17.80;99.90;;;;;;5021979;28;20034;-39
2023/06/23 07:02:04;;;;;;;6.05;5.18;;;17.80;99.90;;;;;;5024650;28;20652;-41
2023/06/23 07:04:30;;;;;;;6.53;5.43;;;17.70;99.90;;;;;;5022488;28;20034;-40
2023/06/23 07:06:56;;;;;;;8.35;5.22;;;17.80;99.90;;;;;;5023988;28;20070;-38
2023/06/23 07:09:21;;;;;;;8.13;5.43;;;17.70;99.90;;;;;;5022241;28;20217;-41
2023/06/23 07:11:48;;;;;;;7.47;6.10;;;17.60;99.90;;;;;;5027876;28;20022;-41
2023/06/23 07:14:14;;;;;;;7.25;5.40;;;17.70;99.90;;;;;;5019184;28;20032;-42
2023/06/23 07:16:40;;;;;;;8.15;5.65;;;17.80;99.90;;;;;;5023148;28;20495;-41
2023/06/23 07:19:05;;;;;;;7.70;5.88;;;17.90;99.90;;;;;;5020934;28;20038;-41
2023/06/23 07:21:32;;;;;;;7.65;5.95;;;17.90;99.90;;;;;;5021195;28;20064;-39
2023/06/23 07:23:58;;;;;;;10.48;6.97;;;18.10;99.90;;;;;;5023338;28;20122;-39
2023/06/23 07:26:23;;;;;;;7.80;5.18;;;18.10;99.90;;;;;;5022258;28;20040;-38
2023/06/23 07:28:49;;;;;;;7.30;5.63;;;18.10;99.90;;;;;;5022755;28;20048;-42
2023/06/23 07:31:14;;;;;;;9.10;6.63;;;18.20;99.90;;;;;;5021698;28;20064;-41
2023/06/23 07:33:41;;;;;;;8.60;6.10;;;18.20;99.90;;;;;;5022052;28;20025;-41
2023/06/23 07:36:06;;;;;;;9.25;6.53;;;18.20;99.90;;;;;;5023146;28;20036;-39
2023/06/23 07:38:32;;;;;;;9.80;7.30;;;18.30;99.90;;;;;;5023160;28;20669;-41
2023/06/23 07:40:58;;;;;;;10.45;6.88;;;18.30;99.90;;;;;;5022241;28;20147;-40
2023/06/23 07:43:23;;;;;;;7.85;5.72;;;18.30;99.90;;;;;;5021339;28;20091;-40
2023/06/23 07:45:49;;;;;;;11.20;8.02;;;18.30;99.90;;;;;;5000847;28;20068;-40
2023/06/23 07:48:15;;;;;;;10.70;8.38;;;18.20;99.90;;;;;;5020873;28;20036;-40
2023/06/23 07:50:40;;;;;;;9.65;7.03;;;18.20;99.90;;;;;;5021045;28;20029;-39
2023/06/23 07:53:06;;;;;;;11.18;8.23;;;18.20;99.90;;;;;;5022029;28;20061;-40
2023/06/23 07:55:32;;;;;;;13.80;8.43;;;18.30;99.90;;;;;;5022463;28;20040;-37
2023/06/23 07:57:57;;;;;;;13.15;8.15;;;18.40;99.90;;;;;;5022979;28;20163;-33
2023/06/23 08:00:26;;;;;;;10.52;7.72;;;18.60;99.90;;;;;;5023065;28;20030;-31
2023/06/23 08:02:52;;;;;;;11.30;7.80;;;18.80;99.90;;;;;;5025504;28;20118;-33
2023/06/23 08:05:18;;;;;;;12.10;8.82;;;18.90;99.90;;;;;;5022798;28;20033;-32
2023/06/23 08:07:45;;;;;;;12.05;8.45;;;18.90;99.90;;;;;;5010573;28;20025;-32
2023/06/23 08:10:11;;;;;;;14.37;8.30;;;19.10;99.90;;;;;;5024835;28;20029;-32
2023/06/23 08:12:37;;;;;;;11.93;8.80;;;19.20;99.90;;;;;;5022312;28;20479;-30
2023/06/23 08:15:06;;;;;;;13.80;8.80;;;19.30;99.90;;;;;;5023800;28;20483;-31
2023/06/23 08:17:32;;;;;;;11.80;8.50;;;19.40;99.90;;;;;;5025503;28;20064;-31
2023/06/23 08:19:58;;;;;;;14.02;8.43;;;19.50;99.90;;;;;;5023415;28;20462;-31
2023/06/23 08:22:23;;;;;;;11.02;8.68;;;19.60;99.90;;;;;;5026091;28;20056;-33
2023/06/23 08:24:49;;;;;;;11.98;7.22;;;19.80;99.90;;;;;;5024970;28;20069;-31
2023/06/23 08:27:15;;;;;;;12.27;8.60;;;19.90;99.90;;;;;;5023464;28;20035;-33
2023/06/23 08:29:40;;;;;;;14.30;9.07;;;19.80;99.90;;;;;;5019690;28;20395;-34
2023/06/23 08:32:07;;;;;;;14.73;8.93;;;20.00;99.90;;;;;;5020785;28;20068;-34
2023/06/23 08:34:33;;;;;;;14.68;9.52;;;20.00;99.90;;;;;;5023131;28;20060;-32
2023/06/23 08:36:58;;;;;;;14.48;9.52;;;20.00;99.90;;;;;;5024745;28;20026;-31
2023/06/23 08:39:24;;;;;;;14.00;9.38;;;20.00;99.90;;;;;;5024451;28;20112;-31
2023/06/23 08:41:50;;;;;;;13.15;9.32;;;20.20;99.90;;;;;;5022673;28;20121;-31
2023/06/23 08:44:20;;;;;;;15.10;10.02;;;20.20;99.90;;;;;;5022374;28;20062;-34
2023/06/23 08:46:49;;;;;;;12.77;9.43;;;20.50;99.90;;;;;;5022176;28;20041;-32
2023/06/23 08:49:17;;;;;;;11.82;8.38;;;20.70;99.90;;;;;;5020246;28;20030;-32
2023/06/23 08:51:43;;;;;;;13.90;8.73;;;20.40;99.90;;;;;;5021244;28;20030;-32
2023/06/23 08:54:09;;;;;;;14.55;8.65;;;19.80;99.90;;;;;;5012418;28;20033;-30
2023/06/23 08:56:35;;;;;;;12.80;8.52;;;19.50;99.90;;;;;;5026856;28;20382;-31
2023/06/23 08:59:00;;;;;;;11.20;7.05;;;19.50;99.90;;;;;;5002776;28;20025;-31
2023/06/23 09:01:26;;;;;;;8.00;5.82;;;20.00;99.90;;;;;;5024191;28;20463;-33
2023/06/23 09:03:52;;;;;;;11.07;7.68;;;20.00;99.90;;;;;;5025447;28;20025;-33
2023/06/23 09:06:18;;;;;;;10.40;6.53;;;20.20;99.90;;;;;;5023636;28;20026;-32
2023/06/23 09:08:44;;;;;;;11.05;6.55;;;20.50;99.90;;;;;;5024274;28;20545;-33
2023/06/23 09:11:10;;;;;;;13.38;8.82;;;21.10;99.90;;;;;;5027288;28;20636;-33
2023/06/23 09:13:36;;;;;;;9.70;7.13;;;21.30;99.90;;;;;;5015541;28;20097;-31
2023/06/23 09:16:02;;;;;;;10.80;7.28;;;21.10;99.90;;;;;;5020522;28;20034;-35
2023/06/23 09:18:32;;;;;;;10.85;7.05;;;20.90;99.90;;;;;;5007708;28;20034;-31
2023/06/23 09:21:00;;;;;;;10.13;7.65;;;20.60;99.90;;;;;;5024844;28;20076;-32
2023/06/23 09:23:26;;;;;;;;;;;20.40;99.90;;;;;;5025415;28;20055;-33
2023/06/23 09:25:54;;;;;;;8.20;5.80;;;20.50;99.90;;;;;;5017268;28;20011;-32
2023/06/23 09:28:27;;;;;;;7.18;5.45;;;20.60;99.90;;;;;;5021625;28;20101;-30
2023/06/23 09:31:06;;;;;;;9.10;7.00;;;20.70;99.90;;;;;;5021660;28;20048;-33
2023/06/23 09:33:32;;;;;;;8.98;6.82;;;20.40;99.90;;;;;;5016426;28;20025;-35
2023/06/23 09:36:04;;;;;;;9.15;7.32;;;20.40;99.90;;;;;;5022632;28;20018;-31
2023/06/23 09:38:35;;;;;;;9.27;7.05;;;20.30;99.90;;;;;;5025560;28;20506;-30
2023/06/23 09:41:14;;;;;;;10.30;7.07;;;20.10;99.90;;;;;;5024559;28;20030;-34
2023/06/23 09:43:45;;;;;;;10.10;6.47;;;20.10;99.90;;;;;;5029704;28;20498;-34
2023/06/23 09:46:13;;;;;;;8.10;6.20;;;20.00;99.90;;;;;;5028293;28;20021;-36
2023/06/23 09:48:40;;;;;;;8.77;6.65;;;20.00;99.90;;;;;;5004767;28;20033;-33
2023/06/23 09:51:06;;;;;;;8.75;6.70;;;20.00;99.90;;;;;;5030328;28;20053;-31
2023/06/23 09:53:33;;;;;;;8.77;6.20;;;20.00;99.90;;;;;;5025536;28;20433;-31
2023/06/23 09:55:59;;;;;;;9.68;6.90;;;20.60;99.90;;;;;;5026789;28;20422;-33
2023/06/23 09:58:35;;;;;;;9.93;7.00;;;21.10;99.90;;;;;;5005134;28;20035;-32
2023/06/23 10:01:06;;;;;;;9.15;6.40;;;21.40;99.90;;;;;;5026039;28;20399;-33
2023/06/23 10:03:40;;;;;;;10.40;6.82;;;21.60;99.90;;;;;;5027703;28;20041;-32
2023/06/23 10:06:06;;;;;;;7.65;5.95;;;21.50;99.90;;;;;;5029518;28;20036;-32
2023/06/23 10:08:38;;;;;;;9.65;5.45;;;21.80;99.90;;;;;;5011187;28;20042;-31
2023/06/23 10:11:06;;;;;;;8.05;5.25;;;21.80;99.90;;;;;;5024778;28;20029;-31
2023/06/23 10:13:33;;;;;;;6.30;5.68;;;21.80;99.90;;;;;;5021150;28;20022;-41
2023/06/23 10:16:00;;;;;;;7.95;6.07;;;21.80;99.90;;;;;;5024929;28;20025;-39
2023/06/23 10:18:26;;;;;;;6.53;5.57;;;21.70;99.90;;;;;;5024681;28;20033;-40
2023/06/23 10:20:52;;;;;;;7.90;5.45;;;22.10;99.90;;;;;;5021415;28;20157;-38
2023/06/23 10:23:20;;;;;;;10.88;6.75;;;22.30;99.90;;;;;;5020724;28;20057;-40
2023/06/23 10:25:50;;;;;;;7.03;5.05;;;22.40;99.90;;;;;;5019760;28;20057;-39
2023/06/23 10:28:18;;;;;;;12.25;6.75;;;22.30;99.90;;;;;;5021339;28;20091;-39
2023/06/23 10:30:46;;;;;;;9.88;7.38;;;21.70;99.90;;;;;;5019568;28;20049;-41
2023/06/23 10:33:18;;;;;;;8.50;6.78;;;21.30;99.90;;;;;;5020600;28;20040;-40
2023/06/23 10:35:46;;;;;;;7.57;5.00;;;21.10;99.90;;;;;;5021833;28;20037;-41
2023/06/23 10:38:23;;;;;;;7.38;5.13;;;20.70;99.90;;;;;;5020384;28;20045;-41
2023/06/23 10:40:54;;;;;;;7.90;5.18;;;20.60;99.90;;;;;;5023731;28;20018;-42
2023/06/23 10:43:21;;;;;;;7.53;4.75;;;20.80;99.90;;;;;;5023046;28;20094;-41
2023/06/23 10:45:48;;;;;;;9.05;5.70;;;21.20;99.90;;;;;;5023492;28;20051;-39
2023/06/23 10:48:14;;;;;;;9.60;6.28;;;21.40;99.90;;;;;;5025328;28;20044;-40
2023/06/23 10:50:41;;;;;;;8.40;6.43;;;21.80;99.90;;;;;;5023671;28;20064;-40
2023/06/23 10:53:17;;;;;;;7.90;6.15;;;22.20;99.90;;;;;;5023927;28;20683;-38
2023/06/23 10:55:45;;;;;;;8.75;7.07;;;22.20;99.90;;;;;;5022704;28;20480;-41
2023/06/23 10:58:18;;;;;;;11.25;7.97;;;22.30;99.90;;;;;;5021500;28;20034;-40
2023/06/23 11:00:46;;;;;;;11.32;7.97;;;22.70;99.90;;;;;;5017488;28;20030;-40
2023/06/23 11:03:23;;;;;;;11.95;7.68;;;23.00;99.90;;;;;;5022990;28;20041;-40
2023/06/23 11:05:53;;;;;;;9.10;7.18;;;23.10;99.90;;;;;;5022258;28;20589;-41
2023/06/23 11:08:27;;;;;;;9.63;7.22;;;23.00;99.90;;;;;;5020658;28;20711;-38
2023/06/23 11:10:59;;;;;;;9.20;6.70;;;23.20;99.90;;;;;;5025336;28;20039;-40
2023/06/23 11:13:33;;;;;;;10.40;6.78;;;23.30;99.90;;;;;;5027417;28;20129;-40
2023/06/23 11:15:59;;;;;;;7.57;6.03;;;23.40;99.90;;;;;;5025452;28;20037;-40
2023/06/23 11:18:26;;;;;;;7.90;6.60;;;23.30;99.90;;;;;;5006002;28;20083;-39
2023/06/23 11:20:52;;;;;;;7.80;6.13;;;23.50;99.90;;;;;;5024803;28;20171;-41
2023/06/23 11:23:29;;;;;;;7.07;5.80;;;23.30;99.90;;;;;;5023102;28;20053;-41
2023/06/23 11:25:55;;;;;;;7.78;4.43;;;23.20;99.90;;;;;;5026653;28;20112;-41
2023/06/23 11:28:36;;;;;;;8.02;5.28;;;22.70;99.90;;;;;;5022639;28;20670;-40
2023/06/23 11:31:13;;;;;;;7.82;5.13;;;23.10;99.90;;;;;;5019668;28;20106;-40
2023/06/23 11:33:59;;;;;;;8.10;5.50;;;23.20;99.90;;;;;;5022073;28;20057;-41
2023/06/23 11:36:27;;;;;;;4.95;4.20;;;23.10;99.90;;;;;;5018962;28;20587;-39
2023/06/23 11:38:54;;;;;;;;;;;23.40;99.90;;;;;;5010200;28;20030;-41
2023/06/23 11:41:30;;;;;;;4.53;4.07;;;23.30;99.90;;;;;;5015373;28;19913;-40
2023/06/23 11:43:57;;;;;;;5.45;3.97;;;22.70;99.90;;;;;;5004094;28;20438;-40
2023/06/23 11:46:23;;;;;;;4.88;4.03;;;22.60;99.90;;;;;;5004221;28;20456;-41
2023/06/23 11:48:49;;;;;;;6.07;4.60;;;23.00;99.90;;;;;;5005719;28;20069;-41
2023/06/23 11:51:15;;;;;;;5.82;4.35;;;23.40;99.90;;;;;;5002051;28;20435;-41
2023/06/23 11:53:41;;;;;;;5.78;4.18;;;23.40;99.90;;;;;;5002742;28;20025;-39
2023/06/23 11:56:08;;;;;;;5.53;4.68;;;23.10;99.90;;;;;;5001272;28;20072;-41
2023/06/23 11:58:34;;;;;;;5.97;4.78;;;22.80;99.90;;;;;;5003456;28;20026;-39
2023/06/23 12:01:01;;;;;;;6.15;4.75;;;22.70;99.90;;;;;;5001578;28;20070;-39
2023/06/23 12:03:29;;;;;;;5.30;4.00;;;22.40;99.90;;;;;;4993596;28;20041;-42
2023/06/23 12:05:55;;;;;;;7.32;4.70;;;22.40;99.90;;;;;;5000590;28;20042;-41
2023/06/23 12:08:24;;;;;;;5.30;4.10;;;22.50;99.90;;;;;;5001922;28;20049;-37
2023/06/23 12:10:51;;;;;;;5.97;3.83;;;22.30;99.90;;;;;;5000854;28;20030;-42
2023/06/23 12:13:19;;;;;;;4.60;4.13;;;22.70;99.90;;;;;;4996063;28;20112;-42
2023/06/23 12:15:45;;;;;;;7.97;3.67;;;22.70;99.90;;;;;;5002549;28;20554;-37
2023/06/23 12:18:11;;;;;;;4.85;3.83;;;22.50;99.90;;;;;;5003616;28;20026;-41
2023/06/23 12:20:38;;;;;;;6.15;4.07;;;22.10;99.90;;;;;;5002787;28;20497;-40
2023/06/23 12:23:06;;;;;;;5.95;4.40;;;22.10;99.90;;;;;;5003006;28;20121;-40
2023/06/23 12:25:36;;;;;;;6.40;4.30;;;22.70;99.90;;;;;;5003616;28;20034;-41
2023/06/23 12:28:03;;;;;;;6.90;3.90;;;23.20;99.90;;;;;;5002182;28;20533;-39
2023/06/23 12:30:41;;;;;;;4.63;3.42;;;23.50;99.90;;;;;;5002249;28;20030;-43
2023/06/23 12:33:23;;;;;;;8.77;4.47;;;23.30;99.90;;;;;;5002135;28;20515;-42
2023/06/23 12:36:04;;;;;;;6.57;4.47;;;23.20;99.90;;;;;;5002601;28;20019;-40
2023/06/23 12:38:33;;;;;;;6.38;4.05;;;22.90;99.90;;;;;;4997108;28;20038;-41
2023/06/23 12:41:17;;;;;;;5.15;4.40;;;22.60;99.90;;;;;;5000683;28;20029;-40
2023/06/23 12:43:44;;;;;;;5.68;4.00;;;22.30;99.90;;;;;;5018074;28;20064;-41
2023/06/23 12:46:11;;;;;;;6.87;4.70;;;22.10;99.90;;;;;;5023199;28;20037;-39
2023/06/23 12:48:40;;;;;;;5.88;4.05;;;22.50;99.90;;;;;;5018269;28;20041;-40
2023/06/23 12:51:06;;;;;;;5.13;4.00;;;22.90;99.90;;;;;;5020826;28;20038;-37
2023/06/23 12:53:33;;;;;;;6.65;4.82;;;23.30;99.90;;;;;;5024948;28;20383;-40
2023/06/23 12:55:59;;;;;;;6.03;4.53;;;23.30;99.90;;;;;;5020213;28;20515;-40